Time;durP1;ratioP1;P1;durP2;ratioP2;P2;SDS_P1;SDS_P2;PMS_P1;PMS_P2;Temp;Humidity;BMP_temperature;BMP_pressure;BME280_temperature;BME280_humidity;BME280_pressure;Samples;Min_cycle;Max_cycle;Signal;HPM_P1;HPM_P2
2022/05/18 00:03:09;;;;;;;4.15;1.20;;;17.30;56.40;;;;;;2309191;57;28284;-75
2022/05/18 00:05:39;;;;;;;2.72;1.05;;;17.00;56.70;;;;;;2347099;57;21092;-75
2022/05/18 00:08:08;;;;;;;3.28;1.23;;;17.10;56.60;;;;;;2346663;57;21038;-75
2022/05/18 00:10:38;;;;;;;1.73;1.10;;;17.20;57.40;;;;;;2346079;57;21050;-75
2022/05/18 00:13:05;;;;;;;3.08;1.08;;;17.30;57.70;;;;;;2346012;57;21346;-76
2022/05/18 00:15:33;;;;;;;4.85;1.05;;;17.30;57.20;;;;;;2344941;57;21034;-75
2022/05/18 00:18:00;;;;;;;2.78;0.88;;;17.20;56.50;;;;;;2345106;57;21592;-75
2022/05/18 00:20:28;;;;;;;2.45;0.98;;;17.20;56.00;;;;;;2345964;57;21073;-75
2022/05/18 00:22:59;;;;;;;3.58;1.40;;;17.20;55.80;;;;;;2345935;57;21042;-75
2022/05/18 00:25:30;;;;;;;1.75;0.82;;;17.20;56.70;;;;;;2345802;57;21072;-75
2022/05/18 00:27:58;;;;;;;1.87;1.10;;;17.10;56.00;;;;;;2346208;57;21039;-74
2022/05/18 00:30:27;;;;;;;2.53;1.17;;;17.10;55.80;;;;;;2345187;57;21046;-74
2022/05/18 00:32:56;;;;;;;1.67;1.08;;;17.10;56.30;;;;;;2345617;57;21085;-74
2022/05/18 00:35:25;;;;;;;10.20;1.60;;;17.10;57.70;;;;;;2345282;57;21053;-75
2022/05/18 00:37:52;;;;;;;2.40;1.10;;;17.10;57.00;;;;;;2346013;57;21034;-74
2022/05/18 00:40:20;;;;;;;8.77;1.40;;;17.00;57.40;;;;;;2345513;57;21117;-75
2022/05/18 00:42:48;;;;;;;4.05;0.90;;;17.00;57.90;;;;;;2346194;57;21675;-75
2022/05/18 00:45:16;;;;;;;2.67;1.00;;;17.00;56.90;;;;;;2345563;57;21675;-75
2022/05/18 00:47:43;;;;;;;3.67;0.90;;;17.00;56.20;;;;;;2345660;57;21097;-74
2022/05/18 00:50:16;;;;;;;2.67;1.00;;;17.00;57.20;;;;;;2345878;57;21093;-75
2022/05/18 00:52:47;;;;;;;3.08;0.90;;;16.90;56.20;;;;;;2345567;57;21527;-75
2022/05/18 00:55:19;;;;;;;1.67;0.93;;;16.90;55.80;;;;;;2345681;57;21109;-75
2022/05/18 00:57:50;;;;;;;3.58;1.08;;;16.90;55.30;;;;;;2346076;57;21117;-75
2022/05/18 01:00:20;;;;;;;1.48;1.30;;;16.80;55.50;;;;;;2345556;57;21026;-74
2022/05/18 01:02:54;;;;;;;3.10;1.02;;;16.80;55.10;;;;;;2345262;57;21236;-74
2022/05/18 01:05:28;;;;;;;4.82;1.00;;;16.70;55.70;;;;;;2345391;57;21093;-74
2022/05/18 01:07:58;;;;;;;9.00;1.83;;;16.70;55.10;;;;;;2345839;57;21057;-75
2022/05/18 01:10:26;;;;;;;4.05;0.73;;;16.70;56.40;;;;;;2593376;53;21035;-74
2022/05/18 01:12:53;;;;;;;0.95;0.70;;;16.70;55.90;;;;;;2346013;57;21102;-74
2022/05/18 01:15:22;;;;;;;3.03;1.00;;;16.60;55.10;;;;;;2344923;57;21050;-74
2022/05/18 01:17:53;;;;;;;3.37;1.10;;;16.60;55.70;;;;;;2343563;57;21116;-75
2022/05/18 01:20:24;;;;;;;3.05;1.25;;;16.60;56.30;;;;;;2344945;57;21670;-74
2022/05/18 01:23:02;;;;;;;3.30;1.25;;;16.60;56.50;;;;;;2345057;57;21054;-74
2022/05/18 01:25:40;;;;;;;2.58;0.93;;;16.60;56.40;;;;;;2344708;57;21050;-74
2022/05/18 01:28:09;;;;;;;2.65;1.17;;;16.60;56.90;;;;;;2345215;57;21109;-74
2022/05/18 01:30:42;;;;;;;5.60;1.00;;;16.60;56.90;;;;;;2344917;57;21115;-75
2022/05/18 01:33:09;;;;;;;;;;;16.50;57.80;;;;;;2347849;57;21098;-74
2022/05/18 01:35:40;;;;;;;5.18;1.42;;;16.70;58.00;;;;;;2344509;57;20081;-74
2022/05/18 01:38:12;;;;;;;6.32;1.75;;;16.60;57.00;;;;;;2345186;57;21513;-74
2022/05/18 01:40:49;;;;;;;7.60;1.58;;;16.50;57.10;;;;;;2345246;57;21039;-74
2022/05/18 01:43:20;;;;;;;2.45;1.05;;;16.50;57.00;;;;;;2344690;57;21567;-74
2022/05/18 01:45:51;;;;;;;2.15;1.48;;;16.40;55.80;;;;;;2344247;57;21560;-74
2022/05/18 01:48:23;;;;;;;2.33;1.20;;;16.40;55.80;;;;;;2345122;57;21107;-75
2022/05/18 01:50:52;;;;;;;3.37;1.17;;;16.40;55.70;;;;;;2344958;57;21069;-74
2022/05/18 01:53:20;;;;;;;4.35;1.30;;;16.40;56.10;;;;;;2345081;57;21088;-74
2022/05/18 01:55:48;;;;;;;4.12;1.20;;;16.30;56.00;;;;;;2345058;57;21033;-74
2022/05/18 01:58:16;;;;;;;4.10;1.30;;;16.30;56.80;;;;;;2592091;53;21644;-74
2022/05/18 02:00:45;;;;;;;5.10;1.08;;;16.30;56.50;;;;;;2344077;57;21034;-74
2022/05/18 02:03:13;;;;;;;3.87;1.20;;;16.30;56.20;;;;;;2345403;57;21058;-75
2022/05/18 02:05:41;;;;;;;6.45;1.25;;;16.30;56.40;;;;;;2344951;57;21121;-75
2022/05/18 02:08:10;;;;;;;6.70;1.30;;;16.30;56.20;;;;;;2344260;57;21058;-74
2022/05/18 02:10:37;;;;;;;3.17;1.50;;;16.30;55.70;;;;;;2345067;57;21098;-74
2022/05/18 02:13:05;;;;;;;1.77;0.88;;;16.30;56.30;;;;;;2344888;57;21094;-75
2022/05/18 02:15:34;;;;;;;3.40;1.33;;;16.30;55.60;;;;;;2338795;57;21517;-75
2022/05/18 02:18:02;;;;;;;2.90;1.35;;;16.20;55.30;;;;;;2582251;53;21525;-75
2022/05/18 02:20:29;;;;;;;2.65;1.55;;;16.20;55.40;;;;;;2345348;57;21046;-75
2022/05/18 02:22:56;;;;;;;10.13;1.65;;;16.20;54.90;;;;;;2345166;57;21121;-75
2022/05/18 02:25:24;;;;;;;2.72;1.40;;;16.20;54.70;;;;;;2343807;57;21077;-75
2022/05/18 02:27:51;;;;;;;10.23;1.67;;;16.20;54.50;;;;;;2590883;53;21343;-74
2022/05/18 02:30:19;;;;;;;3.90;1.10;;;16.10;54.50;;;;;;2344908;57;21110;-75
2022/05/18 02:32:46;;;;;;;1.67;1.20;;;16.20;56.00;;;;;;2344328;57;21101;-75
2022/05/18 02:35:13;;;;;;;5.12;1.30;;;16.20;55.70;;;;;;2344942;57;21089;-75
2022/05/18 02:37:41;;;;;;;2.92;1.35;;;16.10;55.50;;;;;;2344684;57;21046;-75
2022/05/18 02:40:11;;;;;;;2.50;1.20;;;16.10;55.10;;;;;;2345159;57;21034;-75
2022/05/18 02:42:38;;;;;;;2.33;1.20;;;16.10;55.00;;;;;;2344351;57;21533;-75
2022/05/18 02:45:08;;;;;;;1.73;0.93;;;16.10;54.60;;;;;;2344939;57;21109;-75
2022/05/18 02:47:35;;;;;;;1.42;1.10;;;16.00;55.00;;;;;;2344824;57;21153;-75
2022/05/18 02:50:03;;;;;;;0.95;0.90;;;16.10;56.10;;;;;;2344673;57;21066;-75
2022/05/18 02:52:31;;;;;;;4.12;1.08;;;16.00;55.60;;;;;;2345089;57;21035;-75
2022/05/18 02:57:44;;;;;;;2.00;1.50;;;16.00;54.70;;;;;;2344265;57;21076;-75
2022/05/18 03:00:15;;;;;;;3.25;1.10;;;16.00;54.50;;;;;;2344572;57;21050;-75
2022/05/18 03:02:42;;;;;;;2.17;1.30;;;16.00;54.30;;;;;;2591539;53;21529;-75
2022/05/18 03:05:10;;;;;;;4.05;1.15;;;16.00;54.50;;;;;;2344748;57;21047;-74
2022/05/18 03:07:38;;;;;;;5.50;1.40;;;15.90;54.10;;;;;;2343791;57;21102;-75
2022/05/18 03:10:07;;;;;;;3.20;1.30;;;15.90;54.40;;;;;;2344677;57;21043;-75
2022/05/18 03:12:35;;;;;;;2.03;1.12;;;15.90;54.80;;;;;;2344382;57;21054;-75
2022/05/18 03:15:03;;;;;;;8.05;1.52;;;15.90;55.00;;;;;;2344707;57;21528;-74
2022/05/18 03:17:30;;;;;;;5.25;1.37;;;15.90;54.50;;;;;;2344474;57;21505;-75
2022/05/18 03:19:57;;;;;;;3.28;1.30;;;15.90;54.90;;;;;;2344711;57;21046;-75
2022/05/18 03:25:10;;;;;;;1.52;1.10;;;15.90;55.80;;;;;;2344856;57;21108;-75
2022/05/18 03:27:41;;;;;;;4.70;1.25;;;15.90;55.30;;;;;;2343923;57;21041;-75
2022/05/18 03:30:12;;;;;;;2.08;1.40;;;15.80;55.30;;;;;;2591719;53;21035;-75
2022/05/18 03:32:40;;;;;;;2.25;1.27;;;15.80;55.50;;;;;;2344935;57;21109;-75
2022/05/18 03:35:10;;;;;;;2.78;1.30;;;15.80;55.30;;;;;;2345037;57;21046;-74
2022/05/18 03:37:38;;;;;;;3.50;1.30;;;15.80;55.20;;;;;;2344629;57;21180;-75
2022/05/18 03:40:09;;;;;;;4.80;1.52;;;15.80;54.70;;;;;;2426081;55;21046;-74
2022/05/18 03:42:36;;;;;;;1.45;1.20;;;15.80;54.50;;;;;;2495402;55;21058;-74
2022/05/18 03:45:04;;;;;;;4.32;1.90;;;15.80;54.70;;;;;;2266956;59;21057;-74
2022/05/18 03:47:31;;;;;;;4.80;1.52;;;15.80;55.30;;;;;;2266278;59;21574;-74
2022/05/18 03:49:59;;;;;;;1.42;1.10;;;15.80;55.50;;;;;;2265754;59;21057;-73
2022/05/18 03:52:26;;;;;;;11.35;1.48;;;15.80;55.40;;;;;;2265941;59;21109;-75
2022/05/18 03:54:53;;;;;;;5.45;1.37;;;15.80;55.80;;;;;;2265592;59;21617;-73
2022/05/18 03:57:20;;;;;;;5.20;1.27;;;15.90;55.60;;;;;;2265163;59;21098;-73
2022/05/18 03:59:48;;;;;;;3.72;1.70;;;15.80;55.30;;;;;;2263234;59;21125;-73
2022/05/18 04:02:15;;;;;;;8.43;1.50;;;15.80;55.30;;;;;;2265758;59;21133;-73
2022/05/18 04:04:42;;;;;;;3.60;1.48;;;15.80;55.80;;;;;;2265008;59;21050;-73
2022/05/18 04:07:10;;;;;;;5.10;1.85;;;15.80;55.80;;;;;;2265133;59;21137;-72
2022/05/18 04:09:37;;;;;;;1.73;1.20;;;15.80;55.70;;;;;;2265556;59;21091;-73
2022/05/18 04:12:07;;;;;;;3.53;1.33;;;15.80;55.60;;;;;;2265417;59;21039;-73
2022/05/18 04:17:10;;;;;;;5.00;1.60;;;15.80;56.00;;;;;;2362107;56;23445;-72
2022/05/18 04:19:37;;;;;;;2.03;1.27;;;15.80;55.50;;;;;;2374677;56;21518;-73
2022/05/18 04:22:05;;;;;;;4.60;1.55;;;15.80;55.10;;;;;;2374834;56;21573;-72
2022/05/18 04:24:32;;;;;;;2.85;1.23;;;15.80;55.70;;;;;;2372968;56;21058;-73
2022/05/18 04:27:00;;;;;;;5.30;1.40;;;15.80;56.00;;;;;;2372338;56;21051;-72
2022/05/18 04:29:27;;;;;;;3.22;1.20;;;15.80;55.60;;;;;;2373483;56;21055;-72
2022/05/18 04:31:54;;;;;;;1.90;1.25;;;15.80;55.50;;;;;;2373994;56;21416;-72
2022/05/18 04:34:22;;;;;;;6.00;1.80;;;15.80;55.90;;;;;;2628596;52;21050;-72
2022/05/18 04:36:49;;;;;;;2.92;1.60;;;15.80;56.40;;;;;;2374908;56;21450;-72
2022/05/18 04:39:16;;;;;;;3.80;1.45;;;15.80;56.00;;;;;;2374702;56;21639;-73
2022/05/18 04:41:44;;;;;;;5.37;1.35;;;15.80;56.00;;;;;;2374832;56;21301;-73
2022/05/18 04:44:11;;;;;;;2.20;1.40;;;15.90;56.00;;;;;;2374885;56;21029;-74
2022/05/18 04:46:40;;;;;;;6.78;2.00;;;15.90;55.70;;;;;;2374939;56;21051;-74
2022/05/18 04:49:08;;;;;;;4.47;1.50;;;15.80;55.40;;;;;;2375470;56;21639;-74
2022/05/18 04:51:35;;;;;;;4.28;1.83;;;15.80;55.50;;;;;;2375160;56;21039;-74
2022/05/18 04:54:02;;;;;;;2.62;1.33;;;15.80;55.90;;;;;;2374927;56;21145;-74
2022/05/18 04:56:29;;;;;;;2.55;1.52;;;15.90;56.20;;;;;;2373708;56;21027;-74
2022/05/18 04:58:57;;;;;;;2.65;1.50;;;15.90;56.20;;;;;;2375195;56;21046;-73
2022/05/18 05:01:25;;;;;;;2.45;1.50;;;15.90;55.80;;;;;;2375251;56;21580;-74
2022/05/18 05:03:53;;;;;;;4.22;1.50;;;15.90;56.00;;;;;;2375152;56;21054;-74
2022/05/18 05:06:20;;;;;;;3.33;1.40;;;15.90;56.50;;;;;;2628647;52;21042;-74
2022/05/18 05:08:47;;;;;;;4.87;1.52;;;16.00;56.60;;;;;;2374721;56;21055;-73
2022/05/18 05:11:14;;;;;;;4.00;1.85;;;16.00;56.30;;;;;;2375369;56;21055;-74
2022/05/18 05:13:42;;;;;;;3.92;1.67;;;16.00;56.00;;;;;;2374902;56;21058;-74
2022/05/18 05:18:46;;;;;;;3.12;1.65;;;16.00;56.10;;;;;;2380933;56;22639;-72
2022/05/18 05:21:14;;;;;;;2.62;1.55;;;16.00;56.30;;;;;;2374628;56;21084;-72
2022/05/18 05:23:41;;;;;;;2.62;1.55;;;16.00;56.40;;;;;;2375657;56;21051;-72
2022/05/18 05:26:08;;;;;;;1.80;1.40;;;16.00;56.50;;;;;;2374252;56;21109;-76
2022/05/18 05:28:35;;;;;;;3.70;1.80;;;16.00;56.20;;;;;;2628871;52;21046;-72
2022/05/18 05:31:03;;;;;;;4.78;1.80;;;16.00;56.20;;;;;;2374465;56;21114;-72
2022/05/18 05:33:31;;;;;;;4.32;1.85;;;16.00;56.20;;;;;;2374583;56;21070;-72
2022/05/18 05:35:59;;;;;;;5.35;1.83;;;16.00;56.40;;;;;;2374603;56;21019;-73
2022/05/18 05:38:26;;;;;;;6.32;1.70;;;16.00;56.60;;;;;;2375392;56;21118;-73
2022/05/18 05:40:55;;;;;;;2.97;1.75;;;16.00;56.70;;;;;;2375125;56;21114;-73
2022/05/18 05:43:22;;;;;;;3.80;1.67;;;16.00;56.50;;;;;;2375022;56;21113;-73
2022/05/18 05:45:56;;;;;;;2.17;1.70;;;16.00;56.50;;;;;;2374246;56;21043;-72
2022/05/18 05:48:24;;;;;;;4.37;1.80;;;16.00;56.60;;;;;;2375148;56;21054;-73
2022/05/18 05:50:51;;;;;;;3.85;1.70;;;16.10;56.70;;;;;;2375068;56;21608;-73
2022/05/18 05:53:18;;;;;;;1.98;1.48;;;16.10;57.30;;;;;;2375202;56;21601;-72
2022/05/18 05:55:46;;;;;;;6.82;2.17;;;16.10;57.50;;;;;;2375030;56;21541;-73
2022/05/18 05:58:16;;;;;;;5.07;1.75;;;16.10;57.60;;;;;;2374935;56;21047;-73
2022/05/18 06:00:44;;;;;;;3.53;1.62;;;16.10;57.60;;;;;;2628321;52;21106;-72
2022/05/18 06:03:11;;;;;;;3.28;1.65;;;16.10;57.30;;;;;;2374930;56;21055;-73
2022/05/18 06:05:38;;;;;;;3.25;1.70;;;16.20;58.20;;;;;;2374374;56;21138;-73
2022/05/18 06:08:06;;;;;;;9.27;1.55;;;16.20;58.20;;;;;;2375075;56;21047;-73
2022/05/18 06:10:34;;;;;;;3.72;1.80;;;16.20;57.90;;;;;;2375004;56;21039;-72
2022/05/18 06:13:05;;;;;;;4.47;2.03;;;16.20;58.40;;;;;;2374351;56;21663;-72
2022/05/18 06:15:32;;;;;;;4.40;2.30;;;16.20;58.50;;;;;;2628162;52;21031;-73
2022/05/18 06:18:00;;;;;;;4.80;2.05;;;16.30;58.50;;;;;;2374628;56;21031;-72
2022/05/18 06:20:27;;;;;;;5.00;1.87;;;16.30;58.60;;;;;;2374307;56;21632;-73
2022/05/18 06:22:55;;;;;;;4.93;2.47;;;16.40;58.60;;;;;;2628760;52;21015;-73
2022/05/18 06:25:22;;;;;;;5.20;2.30;;;16.40;58.70;;;;;;2374241;56;21098;-72
2022/05/18 06:27:50;;;;;;;5.93;2.08;;;16.50;59.30;;;;;;2374601;56;21106;-73
2022/05/18 06:30:26;;;;;;;4.95;2.28;;;16.50;58.90;;;;;;2373887;56;21035;-73
2022/05/18 06:32:54;;;;;;;5.07;2.90;;;16.60;59.00;;;;;;2372030;56;21074;-73
2022/05/18 06:35:21;;;;;;;5.10;2.80;;;16.70;59.20;;;;;;2373700;56;21034;-72
2022/05/18 06:37:49;;;;;;;4.90;2.50;;;16.70;59.30;;;;;;2373380;56;21062;-73
2022/05/18 06:40:18;;;;;;;4.35;2.20;;;16.80;59.30;;;;;;2625353;52;21030;-73
2022/05/18 06:42:46;;;;;;;8.43;2.47;;;16.90;59.60;;;;;;2373306;56;21051;-72
2022/05/18 06:45:14;;;;;;;3.92;2.28;;;17.00;60.30;;;;;;2373427;56;21055;-73
2022/05/18 06:47:43;;;;;;;3.62;2.00;;;17.10;60.20;;;;;;2373868;56;21051;-73
2022/05/18 06:50:11;;;;;;;2.60;2.12;;;17.20;60.30;;;;;;2372119;56;21130;-73
2022/05/18 06:52:38;;;;;;;5.10;2.70;;;17.20;60.20;;;;;;2373812;56;21108;-73
2022/05/18 06:55:07;;;;;;;6.87;2.60;;;17.30;60.10;;;;;;2374010;56;21054;-73
2022/05/18 06:57:34;;;;;;;2.75;2.10;;;17.40;59.90;;;;;;2373037;56;21663;-72
2022/05/18 07:00:04;;;;;;;3.87;2.40;;;17.40;60.70;;;;;;2373727;56;21085;-74
2022/05/18 07:02:31;;;;;;;5.37;2.78;;;17.50;61.00;;;;;;2373999;56;21079;-74
2022/05/18 07:04:59;;;;;;;4.12;2.55;;;17.50;60.80;;;;;;2373667;56;21101;-73
2022/05/18 07:07:27;;;;;;;5.90;2.55;;;17.50;60.70;;;;;;2627313;52;21105;-73
2022/05/18 07:09:54;;;;;;;4.87;2.78;;;17.60;60.70;;;;;;2373567;56;21074;-73
2022/05/18 07:12:21;;;;;;;7.75;3.12;;;17.60;60.40;;;;;;2373552;56;21182;-72
2022/05/18 07:14:49;;;;;;;5.62;2.90;;;17.60;60.60;;;;;;2373476;56;21046;-73
2022/05/18 07:17:16;;;;;;;6.22;3.10;;;17.70;61.00;;;;;;2372527;56;21059;-73
2022/05/18 07:19:43;;;;;;;4.05;2.78;;;17.80;61.80;;;;;;2373357;56;21694;-72
2022/05/18 07:22:12;;;;;;;3.95;2.85;;;17.80;62.00;;;;;;2373790;56;21047;-73
2022/05/18 07:24:39;;;;;;;7.68;3.08;;;18.00;61.80;;;;;;2373999;56;21026;-73
2022/05/18 07:27:06;;;;;;;4.32;3.00;;;18.10;61.50;;;;;;2371776;56;21090;-73
2022/05/18 07:29:34;;;;;;;12.32;3.90;;;18.20;61.40;;;;;;2372279;56;21628;-71
2022/05/18 07:32:13;;;;;;;6.20;3.47;;;18.30;61.50;;;;;;2371882;56;21031;-73
2022/05/18 07:34:41;;;;;;;9.52;2.70;;;18.50;61.50;;;;;;2371262;56;21039;-73
2022/05/18 07:37:09;;;;;;;6.03;2.47;;;18.60;61.20;;;;;;2372226;56;21062;-73
2022/05/18 07:39:37;;;;;;;5.97;3.45;;;18.80;61.50;;;;;;2371786;56;21612;-73
2022/05/18 07:42:06;;;;;;;7.70;3.00;;;18.90;61.50;;;;;;2372046;56;21063;-73
2022/05/18 07:44:35;;;;;;;3.70;3.00;;;19.00;61.10;;;;;;2373555;56;21047;-73
2022/05/18 07:47:05;;;;;;;6.28;3.00;;;19.10;60.80;;;;;;2624776;52;21927;-73
2022/05/18 07:49:35;;;;;;;5.97;3.80;;;19.20;60.70;;;;;;2372336;56;21047;-73
2022/05/18 07:52:04;;;;;;;4.65;3.12;;;19.40;60.80;;;;;;2371607;56;21047;-73
2022/05/18 07:54:32;;;;;;;7.70;4.40;;;19.40;60.30;;;;;;2372490;56;21154;-73
2022/05/18 07:56:59;;;;;;;11.52;4.90;;;19.50;59.80;;;;;;2371416;56;21161;-73
2022/05/18 08:02:03;;;;;;;5.00;3.80;;;19.60;59.50;;;;;;2353663;57;22145;-73
2022/05/18 08:04:31;;;;;;;5.55;3.60;;;19.70;59.60;;;;;;2346207;57;21034;-73
2022/05/18 08:06:58;;;;;;;11.25;3.58;;;19.80;59.60;;;;;;2348740;56;21098;-73
2022/05/18 08:09:26;;;;;;;7.40;3.33;;;19.90;59.70;;;;;;2372575;56;21102;-73
2022/05/18 08:17:25;;;;;;;4.20;3.40;;;20.10;60.00;;;;;;2374597;56;21143;-73
2022/05/18 08:19:52;;;;;;;5.72;3.70;;;20.10;60.20;;;;;;2372807;56;21098;-73
2022/05/18 08:24:55;;;;;;;6.85;3.97;;;20.20;59.70;;;;;;2350219;57;22114;-74
2022/05/18 08:27:23;;;;;;;8.18;2.95;;;20.30;59.60;;;;;;2351192;56;21058;-73
2022/05/18 08:29:50;;;;;;;6.90;3.75;;;20.30;59.60;;;;;;2373241;56;21130;-73
2022/05/18 08:32:17;;;;;;;6.95;4.32;;;20.40;59.80;;;;;;2373743;56;21086;-74
2022/05/18 08:34:44;;;;;;;8.27;3.67;;;20.50;59.70;;;;;;2373691;56;21043;-74
2022/05/18 08:37:12;;;;;;;4.85;4.00;;;20.50;59.90;;;;;;2372369;56;21051;-73
2022/05/18 08:39:39;;;;;;;8.35;3.80;;;20.60;59.80;;;;;;2374300;56;21058;-73
2022/05/18 08:42:08;;;;;;;5.32;4.00;;;20.70;59.60;;;;;;2372630;56;21377;-74
2022/05/18 08:44:36;;;;;;;7.70;4.28;;;20.70;59.40;;;;;;2373986;56;21058;-73
2022/05/18 08:47:19;;;;;;;8.52;4.32;;;20.80;59.50;;;;;;2627425;52;21024;-73
2022/05/18 08:49:57;;;;;;;6.25;4.95;;;20.80;59.30;;;;;;2373345;56;21122;-73
2022/05/18 08:52:51;;;;;;;8.82;4.03;;;20.90;59.40;;;;;;2371713;56;21035;-74
2022/05/18 08:55:53;;;;;;;7.10;4.40;;;20.90;59.60;;;;;;2372748;56;21046;-74
2022/05/18 08:58:30;;;;;;;8.50;4.78;;;21.00;60.20;;;;;;2373721;56;21110;-73
2022/05/18 09:01:01;;;;;;;8.45;4.35;;;21.00;59.80;;;;;;2374550;56;21557;-73
2022/05/18 09:03:35;;;;;;;7.10;4.55;;;21.00;59.70;;;;;;2372856;56;21178;-73
2022/05/18 09:06:09;;;;;;;7.35;4.53;;;21.00;59.90;;;;;;2373052;56;21188;-73
2022/05/18 09:08:40;;;;;;;8.50;4.50;;;21.00;59.70;;;;;;2625344;52;21058;-73
2022/05/18 09:11:14;;;;;;;6.85;4.57;;;21.00;59.70;;;;;;2371401;56;21035;-74
2022/05/18 09:13:41;;;;;;;6.95;4.32;;;20.90;60.10;;;;;;2371989;56;21035;-74
2022/05/18 09:16:20;;;;;;;14.00;5.03;;;20.90;60.20;;;;;;2372918;56;21561;-73
2022/05/18 09:18:56;;;;;;;7.07;4.60;;;20.90;60.90;;;;;;2373402;56;21035;-73
2022/05/18 09:21:32;;;;;;;7.55;5.40;;;20.90;60.40;;;;;;2373320;56;21118;-73
2022/05/18 09:24:10;;;;;;;10.05;4.72;;;20.90;60.60;;;;;;2372458;56;21541;-73
2022/05/18 09:29:45;;;;;;;8.20;4.82;;;21.00;60.60;;;;;;2352472;57;22560;-73
2022/05/18 09:32:31;;;;;;;8.00;4.10;;;21.00;61.10;;;;;;2591802;53;21041;-74
2022/05/18 09:37:59;;;;;;;5.95;4.30;;;21.10;61.50;;;;;;2368055;56;22117;-74
2022/05/18 09:40:30;;;;;;;12.43;4.62;;;21.10;62.10;;;;;;2480635;54;21104;-74
2022/05/18 09:43:04;;;;;;;6.93;4.90;;;21.20;62.10;;;;;;2321425;58;21052;-73
2022/05/18 09:45:36;;;;;;;7.37;4.43;;;21.30;62.00;;;;;;2563315;54;21048;-73
2022/05/18 09:48:08;;;;;;;12.07;5.25;;;21.40;61.80;;;;;;2562486;54;21064;-73
2022/05/18 09:50:38;;;;;;;8.43;4.70;;;21.40;61.50;;;;;;2323041;58;21131;-73
2022/05/18 09:53:05;;;;;;;6.40;4.87;;;21.50;61.20;;;;;;2322737;58;21152;-72
2022/05/18 09:55:33;;;;;;;7.78;4.87;;;21.50;61.10;;;;;;2322578;58;21136;-73
2022/05/18 09:58:03;;;;;;;8.85;5.10;;;21.50;60.80;;;;;;2320108;58;21119;-73
2022/05/18 10:00:32;;;;;;;6.75;4.47;;;21.50;61.30;;;;;;2320371;58;21048;-73
2022/05/18 10:08:51;;;;;;;11.98;5.30;;;21.60;61.80;;;;;;2322548;58;22411;-74
2022/05/18 10:11:20;;;;;;;6.18;4.60;;;21.60;61.40;;;;;;2321959;58;21147;-72
2022/05/18 10:14:00;;;;;;;7.18;5.18;;;21.50;61.60;;;;;;2322646;58;21131;-72
2022/05/18 10:16:38;;;;;;;10.10;5.18;;;21.60;61.60;;;;;;2321363;58;21060;-73
2022/05/18 10:19:09;;;;;;;5.72;5.05;;;21.70;61.80;;;;;;2322463;58;21135;-73
2022/05/18 10:21:48;;;;;;;7.57;5.40;;;21.70;61.50;;;;;;2322619;58;21067;-73
2022/05/18 10:24:30;;;;;;;11.32;5.25;;;21.70;61.60;;;;;;2320473;58;21126;-73
2022/05/18 10:27:17;;;;;;;6.45;4.90;;;21.80;62.00;;;;;;2562907;54;21538;-73
2022/05/18 10:29:51;;;;;;;4.70;4.12;;;21.80;61.90;;;;;;2322847;58;21052;-73
2022/05/18 10:32:26;;;;;;;7.22;4.55;;;21.90;61.40;;;;;;2564926;54;21107;-74
2022/05/18 10:34:55;;;;;;;7.82;5.05;;;22.00;62.20;;;;;;2321393;58;21055;-73
2022/05/18 10:37:29;;;;;;;8.10;5.18;;;22.00;61.80;;;;;;2321421;58;21079;-74
2022/05/18 10:40:00;;;;;;;;;;;22.10;61.80;;;;;;2326378;58;21063;-74
2022/05/18 10:42:30;;;;;;;6.82;4.72;;;22.20;61.30;;;;;;2321720;58;20224;-73
2022/05/18 10:45:00;;;;;;;6.95;4.50;;;22.20;61.70;;;;;;2322991;58;21052;-73
2022/05/18 10:50:27;;;;;;;6.55;4.60;;;22.30;62.20;;;;;;2355172;57;20057;-73
2022/05/18 10:52:59;;;;;;;7.82;5.70;;;22.40;62.10;;;;;;2347433;57;21062;-75
2022/05/18 10:55:29;;;;;;;6.05;4.70;;;22.50;61.60;;;;;;2346398;57;21058;-76
2022/05/18 10:57:59;;;;;;;8.38;5.20;;;22.60;61.50;;;;;;2362108;56;21517;-75
2022/05/18 11:00:36;;;;;;;9.23;5.10;;;22.70;61.60;;;;;;2373371;56;21094;-72
2022/05/18 11:03:14;;;;;;;9.20;5.57;;;22.90;61.70;;;;;;2374696;56;21106;-73
2022/05/18 11:05:45;;;;;;;7.32;5.00;;;23.00;61.30;;;;;;2374420;56;21035;-73
2022/05/18 11:08:15;;;;;;;4.87;3.85;;;23.10;61.60;;;;;;2371939;56;21133;-73
2022/05/18 11:10:50;;;;;;;7.10;5.62;;;23.20;61.70;;;;;;2374333;56;21573;-73
2022/05/18 11:13:27;;;;;;;5.80;4.50;;;23.40;60.40;;;;;;2375238;56;21608;-76
2022/05/18 11:16:04;;;;;;;6.25;4.25;;;23.50;59.80;;;;;;2626440;52;21043;-74
2022/05/18 11:18:40;;;;;;;9.18;4.72;;;23.60;59.60;;;;;;2375046;56;21047;-73
2022/05/18 11:21:18;;;;;;;6.75;4.65;;;23.70;59.50;;;;;;2374840;56;21114;-73
2022/05/18 11:23:54;;;;;;;7.75;5.00;;;23.90;59.10;;;;;;2375266;56;21047;-74
2022/05/18 11:26:33;;;;;;;7.87;4.85;;;24.00;58.40;;;;;;2628488;52;21039;-73
2022/05/18 11:29:15;;;;;;;7.53;5.32;;;24.10;58.20;;;;;;2375144;56;21109;-74
2022/05/18 11:32:14;;;;;;;8.15;4.82;;;24.20;58.30;;;;;;2374888;56;21110;-73
2022/05/18 11:34:49;;;;;;;6.37;4.65;;;24.40;58.30;;;;;;2373346;56;21043;-73
2022/05/18 11:37:34;;;;;;;8.30;4.55;;;24.60;58.30;;;;;;2374888;56;21090;-73
2022/05/18 11:40:10;;;;;;;5.60;4.55;;;24.70;58.30;;;;;;2374698;56;21106;-74
2022/05/18 11:42:48;;;;;;;7.10;4.97;;;24.90;57.40;;;;;;2375219;56;21051;-73
2022/05/18 11:45:25;;;;;;;8.98;5.05;;;25.00;57.90;;;;;;2374628;56;21113;-73
2022/05/18 11:51:04;;;;;;;5.47;4.30;;;25.30;56.70;;;;;;2327058;57;22578;-74
2022/05/18 11:53:43;;;;;;;9.45;5.47;;;25.40;56.00;;;;;;2319240;58;21051;-74
2022/05/18 11:56:21;;;;;;;7.55;4.90;;;25.50;55.80;;;;;;2319038;58;21218;-73
2022/05/18 11:59:10;;;;;;;7.93;4.75;;;25.60;55.00;;;;;;2343321;57;22211;-73
2022/05/18 12:01:48;;;;;;;6.68;4.90;;;25.70;54.80;;;;;;2346302;57;21054;-74
2022/05/18 12:04:46;;;;;;;4.55;4.15;;;25.80;54.50;;;;;;2346385;57;21064;-74
2022/05/18 12:07:33;;;;;;;7.15;4.72;;;25.80;54.40;;;;;;2592119;53;21049;-73
2022/05/18 12:10:11;;;;;;;7.10;5.40;;;25.90;54.70;;;;;;2344941;57;21061;-74
2022/05/18 12:12:46;;;;;;;5.15;4.65;;;26.00;54.40;;;;;;2345818;57;21049;-74
2022/05/18 12:15:20;;;;;;;8.68;4.72;;;26.10;54.60;;;;;;2346021;57;21054;-72
2022/05/18 12:17:53;;;;;;;6.53;4.82;;;26.20;54.60;;;;;;2344400;57;21058;-73
2022/05/18 12:20:28;;;;;;;11.75;5.15;;;26.30;54.70;;;;;;2346649;57;21057;-73
2022/05/18 12:22:57;;;;;;;7.43;5.32;;;26.40;54.90;;;;;;2345898;57;21082;-73
2022/05/18 12:25:27;;;;;;;5.70;4.68;;;26.50;54.10;;;;;;2345788;57;21041;-73
2022/05/18 12:27:58;;;;;;;6.72;4.95;;;26.60;53.90;;;;;;2346024;57;21042;-74
2022/05/18 12:30:29;;;;;;;8.05;5.25;;;26.60;53.80;;;;;;2593494;53;21054;-73
2022/05/18 12:32:58;;;;;;;5.80;4.70;;;26.70;54.60;;;;;;2345486;57;21061;-73
2022/05/18 12:35:32;;;;;;;8.82;5.60;;;26.80;53.80;;;;;;2345468;57;21134;-73
2022/05/18 12:38:06;;;;;;;7.60;5.03;;;26.90;53.10;;;;;;2593577;53;21054;-73
2022/05/18 12:40:48;;;;;;;6.25;5.45;;;26.90;52.80;;;;;;2346270;57;21584;-74
2022/05/18 12:43:27;;;;;;;9.77;5.70;;;27.00;53.40;;;;;;2346317;57;21061;-74
2022/05/18 12:46:02;;;;;;;5.97;5.35;;;27.10;52.70;;;;;;2346109;57;21050;-74
2022/05/18 12:48:37;;;;;;;8.07;4.75;;;27.10;52.50;;;;;;2344244;57;21049;-74
2022/05/18 12:51:31;;;;;;;6.90;5.37;;;27.30;53.00;;;;;;2345654;57;21053;-73
2022/05/18 12:54:21;;;;;;;11.05;6.05;;;27.40;52.90;;;;;;2346300;57;21062;-73
2022/05/18 12:56:52;;;;;;;8.68;5.00;;;27.50;53.00;;;;;;2345814;57;21057;-74
2022/05/18 12:59:22;;;;;;;7.55;5.05;;;27.60;52.40;;;;;;2346513;57;21126;-74
2022/05/18 13:02:05;;;;;;;7.03;5.07;;;27.60;52.30;;;;;;2591878;53;21053;-74
2022/05/18 13:07:25;;;;;;;6.97;5.10;;;27.70;51.90;;;;;;2333373;57;22127;-74
2022/05/18 13:10:05;;;;;;;9.32;5.03;;;27.80;51.50;;;;;;2347957;57;21045;-74
2022/05/18 13:15:51;;;;;;;6.80;5.10;;;28.00;50.70;;;;;;2355011;57;22145;-74
2022/05/18 13:18:19;;;;;;;6.53;4.90;;;28.00;50.60;;;;;;2366817;56;21114;-74
2022/05/18 13:20:54;;;;;;;7.65;5.25;;;28.00;50.80;;;;;;2626864;52;21114;-74
2022/05/18 13:23:40;;;;;;;6.65;5.37;;;28.10;50.90;;;;;;2373370;56;21058;-73
2022/05/18 13:26:18;;;;;;;6.22;5.30;;;28.10;51.00;;;;;;2373554;56;21051;-77
2022/05/18 13:28:46;;;;;;;7.70;4.95;;;28.20;51.10;;;;;;2628187;52;21721;-75
2022/05/18 13:31:14;;;;;;;9.00;6.12;;;28.20;51.20;;;;;;2374396;56;21043;-73
2022/05/18 13:33:49;;;;;;;6.35;5.07;;;28.40;50.80;;;;;;2374759;56;21094;-73
2022/05/18 13:36:29;;;;;;;8.15;5.20;;;28.50;51.30;;;;;;2374287;56;21172;-73
2022/05/18 13:38:56;;;;;;;7.35;5.18;;;28.60;50.20;;;;;;2625845;52;21252;-74
2022/05/18 13:41:24;;;;;;;6.80;5.30;;;28.60;50.30;;;;;;2374267;56;21039;-73
2022/05/18 13:43:53;;;;;;;7.65;5.65;;;28.60;49.60;;;;;;2374405;56;21035;-74
2022/05/18 13:46:23;;;;;;;8.40;5.82;;;28.60;49.20;;;;;;2374086;56;21174;-74
2022/05/18 13:48:56;;;;;;;8.85;5.05;;;28.70;49.50;;;;;;2374608;56;21059;-74
2022/05/18 13:51:28;;;;;;;5.65;4.65;;;28.70;49.70;;;;;;2374729;56;21035;-74
2022/05/18 13:53:59;;;;;;;7.87;5.37;;;28.60;49.70;;;;;;2374320;56;21039;-74